SAST,Max TemperatureF,Mean TemperatureF,Min TemperatureF,Max Dew PointF,MeanDew PointF,Min DewpointF,Max Humidity, Mean Humidity, Min Humidity, Max Sea Level PressureIn, Mean Sea Level PressureIn, Min Sea Level PressureIn, Max VisibilityMiles, Mean VisibilityMiles, Min VisibilityMiles, Max Wind SpeedMPH, Mean Wind SpeedMPH, Max Gust SpeedMPH,PrecipitationIn, CloudCover, Events, WindDirDegrees
2013-11-1,66,62,58,60,58,55,94,88,78,30.18,29.98,29.80,12,7,4,18,12,,0.16,6,Rain,200
2013-11-2,66,60,53,56,53,50,94,79,55,30.26,30.19,30.15,12,7,4,13,9,,0.00,4,Rain,122
2013-11-3,69,60,50,57,53,48,94,78,59,30.12,30.07,30.01,19,12,6,12,5,,0.00,1,,81
2013-11-4,81,66,51,63,56,51,94,76,39,30.04,29.93,29.83,12,9,6,12,3,,0.00,4,,156
2013-11-5,71,64,57,61,58,55,94,81,57,29.95,29.91,29.86,12,8,6,12,5,,0.00,3,,122
2013-11-6,78,68,57,63,57,43,94,76,51,29.92,29.77,29.68,12,7,5,21,7,,0.00,4,Rain,255
2013-11-7,75,64,52,55,46,39,77,53,26,30.06,29.93,29.86,12,8,6,25,12,,0.00,2,,279
2013-11-8,68,60,52,55,50,46,82,66,43,30.09,30.04,30.01,19,8,6,14,8,,0.00,3,,255
2013-11-9,67,62,56,58,53,50,90,76,60,30.18,30.11,30.04,12,7,3,13,8,,0.03,5,Rain,253
2013-11-10,68,60,52,55,53,48,88,74,53,30.21,30.17,30.12,12,8,6,10,6,,0.00,1,,210
2013-11-11,70,60,50,59,55,46,94,76,58,30.15,30.04,29.92,12,8,6,18,7,,0.00,2,,88
2013-11-12,72,64,55,63,59,53,94,80,64,29.89,29.84,29.77,12,7,4,12,6,,0.00,4,,99
2013-11-13,75,68,61,64,62,61,94,81,57,29.86,29.81,29.77,12,7,4,14,6,,0.00,5,,221
2013-11-14,67,64,60,64,59,57,94,84,70,30.01,29.88,29.80,12,7,4,12,6,,0.03,7,Rain,244
2013-11-15,68,61,54,61,58,52,94,86,64,30.02,29.95,29.86,12,6,3,31,10,45,0.20,6,Rain,99
2013-11-16,68,62,57,63,59,55,100,86,59,29.89,29.85,29.80,12,6,3,22,15,30,0.87,6,Rain-Thunderstorm,175
2013-11-17,65,60,54,63,58,52,94,88,79,30.06,29.95,29.83,12,6,2,17,9,,0.31,6,Rain,250
2013-11-18,68,62,56,59,55,52,94,76,53,30.07,30.02,29.95,19,8,6,16,7,,0.00,5,Rain,86
2013-11-19,76,64,52,63,57,50,88,74,47,29.95,29.70,29.50,19,8,5,15,5,,0.02,2,Rain-Thunderstorm,147
2013-11-20,71,65,59,61,57,51,94,77,62,30.09,29.83,29.62,19,8,3,26,11,30,0.24,5,Rain,263
2013-11-21,66,60,54,53,50,47,88,69,44,30.20,30.12,30.04,12,8,6,17,8,,0.00,3,,111
2013-11-22,80,64,48,61,53,46,88,69,34,30.09,29.95,29.86,12,9,6,13,5,,0.00,3,,254
2013-11-23,68,64,60,59,57,54,94,77,55,30.18,30.14,30.09,12,7,6,10,6,,0.00,6,,167
2013-11-24,75,66,56,63,58,53,88,74,46,30.18,29.99,29.80,19,9,4,15,8,,0.00,4,,103
2013-11-25,96,76,57,64,60,53,94,73,15,29.89,29.75,29.66,12,7,4,20,6,,0.00,5,,251
2013-11-26,72,64,57,61,57,54,94,78,48,30.18,30.00,29.88,12,6,2,17,10,,0.08,6,Rain,243
2013-11-27,68,62,55,55,53,48,94,77,45,30.30,30.24,30.15,19,7,2,10,6,,0.01,6,Rain,87
2013-11-28,70,62,54,55,54,50,88,69,43,30.30,30.19,30.09,19,8,6,20,7,,0.00,2,,100
2013-11-29,75,64,54,59,55,50,88,71,47,30.06,29.93,29.83,12,9,4,10,5,,0.12,3,Rain,237
2013-11-30,66,62,57,61,56,52,94,80,63,30.18,30.07,29.97,12,7,2,15,8,,0.08,6,Rain,163